Time;durP1;ratioP1;P1;durP2;ratioP2;P2;SDS_P1;SDS_P2;PMS_P1;PMS_P2;Temp;Humidity;BMP_temperature;BMP_pressure;BME280_temperature;BME280_humidity;BME280_pressure;Samples;Min_cycle;Max_cycle;Signal;HPM_P1;HPM_P2
2023/04/01 00:00:19;;;;;;;6.70;2.83;;;;;;;;;;5001907;28;20034;-75
2023/04/01 00:02:45;;;;;;;6.68;3.30;;;;;;;;;;5007401;28;20053;-74
2023/04/01 00:05:11;;;;;;;6.70;3.65;;;;;;;;;;5005966;28;20021;-75
2023/04/01 00:07:37;;;;;;;6.68;3.10;;;;;;;;;;5005118;28;20032;-76
2023/04/01 00:10:03;;;;;;;12.27;3.35;;;;;;;;;;5011037;28;20284;-74
2023/04/01 00:12:28;;;;;;;8.82;3.10;;;;;;;;;;5019335;28;21094;-74
2023/04/01 00:14:54;;;;;;;7.18;3.05;;;;;;;;;;5008982;28;20025;-74
2023/04/01 00:17:20;;;;;;;6.38;2.80;;;;;;;;;;5012839;28;20080;-75
2023/04/01 00:19:45;;;;;;;7.50;2.60;;;;;;;;;;5004837;28;20030;-74
2023/04/01 00:22:11;;;;;;;6.95;3.28;;;;;;;;;;5009004;28;20036;-75
2023/04/01 00:24:37;;;;;;;6.65;3.13;;;;;;;;;;5007229;28;20026;-75
2023/04/01 00:27:02;;;;;;;7.82;3.22;;;;;;;;;;5002417;28;20055;-74
2023/04/01 00:29:30;;;;;;;7.18;2.83;;;;;;;;;;5007871;28;20172;-75
2023/04/01 00:31:56;;;;;;;4.97;2.90;;;;;;;;;;5006500;28;20025;-74
2023/04/01 00:34:21;;;;;;;8.02;3.25;;;;;;;;;;5012395;28;20026;-76
2023/04/01 00:36:46;;;;;;;8.77;3.15;;;;;;;;;;5017108;28;20040;-75
2023/04/01 00:39:12;;;;;;;7.45;2.90;;;;;;;;;;5011110;28;20040;-75
2023/04/01 00:41:37;;;;;;;5.45;2.78;;;;;;;;;;5010066;28;20084;-75
2023/04/01 00:44:15;;;;;;;8.18;3.50;;;;;;;;;;5012817;28;20029;-75
2023/04/01 00:46:40;;;;;;;10.38;3.17;;;;;;;;;;5021255;28;20412;-74
2023/04/01 00:49:05;;;;;;;11.23;3.60;;;;;;;;;;5011453;28;20038;-74
2023/04/01 00:51:31;;;;;;;7.82;2.70;;;;;;;;;;5006308;28;20029;-75
2023/04/01 00:53:58;;;;;;;10.30;3.88;;;;;;;;;;5013903;28;20036;-76
2023/04/01 00:56:30;;;;;;;5.88;2.70;;;;;;;;;;5011299;28;20040;-74
2023/04/01 00:59:00;;;;;;;8.13;3.00;;;;;;;;;;5013889;28;20038;-74
2023/04/01 01:01:25;;;;;;;6.72;3.00;;;;;;;;;;5003641;28;20048;-76
2023/04/01 01:03:51;;;;;;;7.65;2.80;;;;;;;;;;5004616;28;20026;-74
2023/04/01 01:06:21;;;;;;;9.77;3.80;;;;;;;;;;5013635;28;20037;-74
2023/04/01 01:08:59;;;;;;;8.98;4.05;;;;;;;;;;5012463;28;20050;-74
2023/04/01 01:11:42;;;;;;;11.52;4.93;;;;;;;;;;5004805;28;20435;-74
2023/04/01 01:14:26;;;;;;;8.63;4.55;;;;;;;;;;5009392;28;20052;-74
2023/04/01 01:16:59;;;;;;;8.60;3.85;;;;;;;;;;5008875;28;20028;-74
2023/04/01 01:19:47;;;;;;;10.55;3.70;;;;;;;;;;5009924;28;20028;-76
2023/04/01 01:22:31;;;;;;;9.77;5.55;;;;;;;;;;5009975;28;20041;-76
2023/04/01 01:25:09;;;;;;;12.68;5.20;;;;;;;;;;5006785;28;20021;-75
2023/04/01 01:27:37;;;;;;;7.03;3.42;;;;;;;;;;5010523;28;20420;-77
2023/04/01 01:30:20;;;;;;;9.52;4.53;;;;;;;;;;5008414;28;20711;-77
2023/04/01 01:32:57;;;;;;;11.13;3.35;;;;;;;;;;5014365;28;20030;-76
2023/04/01 01:35:22;;;;;;;8.93;4.10;;;;;;;;;;5014970;28;20425;-75
2023/04/01 01:37:50;;;;;;;10.27;4.90;;;;;;;;;;5005140;28;20045;-75
2023/04/01 01:40:16;;;;;;;10.27;4.57;;;;;;;;;;5013782;28;20068;-74
2023/04/01 01:42:44;;;;;;;17.33;8.55;;;;;;;;;;5016869;28;20143;-74
2023/04/01 01:45:11;;;;;;;11.68;4.65;;;;;;;;;;5012939;28;20033;-76
2023/04/01 01:47:36;;;;;;;10.05;4.28;;;;;;;;;;5014428;28;20452;-74
2023/04/01 01:50:03;;;;;;;13.10;6.07;;;;;;;;;;5010723;28;20056;-74
2023/04/01 01:52:28;;;;;;;8.77;4.35;;;;;;;;;;5010689;28;20455;-73
2023/04/01 01:54:55;;;;;;;7.35;4.05;;;;;;;;;;5005088;28;20057;-75
2023/04/01 01:57:30;;;;;;;7.68;4.38;;;;;;;;;;5000919;28;20102;-74
2023/04/01 01:59:58;;;;;;;11.00;4.03;;;;;;;;;;4989640;28;20026;-75
2023/04/01 02:02:25;;;;;;;8.95;3.38;;;;;;;;;;5001230;28;20040;-74
2023/04/01 02:04:51;;;;;;;9.35;3.90;;;;;;;;;;5005859;28;20025;-76
2023/04/01 02:07:22;;;;;;;7.20;3.05;;;;;;;;;;5013925;28;20053;-75
2023/04/01 02:09:48;;;;;;;11.88;3.63;;;;;;;;;;5010737;28;20091;-74
2023/04/01 02:12:15;;;;;;;11.10;4.30;;;;;;;;;;5017259;28;20037;-75
2023/04/01 02:14:46;;;;;;;8.98;4.72;;;;;;;;;;5009748;28;20022;-74
2023/04/01 02:17:19;;;;;;;11.35;4.30;;;;;;;;;;5012184;28;20086;-75
2023/04/01 02:19:52;;;;;;;13.73;4.85;;;;;;;;;;5009886;28;20033;-75
2023/04/01 02:22:21;;;;;;;11.00;5.65;;;;;;;;;;5006573;28;20352;-75
2023/04/01 02:24:47;;;;;;;11.32;4.85;;;;;;;;;;5005745;28;20159;-75
2023/04/01 02:27:12;;;;;;;10.93;4.10;;;;;;;;;;5014932;28;20076;-77
2023/04/01 02:29:38;;;;;;;8.30;3.85;;;;;;;;;;5011325;28;20061;-75
2023/04/01 02:32:04;;;;;;;10.52;4.85;;;;;;;;;;5004218;28;20083;-76
2023/04/01 02:34:30;;;;;;;8.90;4.30;;;;;;;;;;5006509;28;20025;-75
2023/04/01 02:36:55;;;;;;;6.13;3.58;;;;;;;;;;5010202;28;20030;-74
2023/04/01 02:39:21;;;;;;;8.57;4.00;;;;;;;;;;5007443;28;20034;-75
2023/04/01 02:41:46;;;;;;;6.72;3.58;;;;;;;;;;5001820;28;20025;-74
2023/04/01 02:44:12;;;;;;;10.63;5.05;;;;;;;;;;5007094;28;20133;-76
2023/04/01 02:46:38;;;;;;;12.55;4.43;;;;;;;;;;5014856;28;20053;-74
2023/04/01 02:49:03;;;;;;;6.88;4.00;;;;;;;;;;5007597;28;20029;-74
2023/04/01 02:51:29;;;;;;;15.40;5.38;;;;;;;;;;5012102;28;20099;-76
2023/04/01 02:53:54;;;;;;;10.15;4.07;;;;;;;;;;5007470;28;20025;-75
2023/04/01 02:56:19;;;;;;;8.15;4.47;;;;;;;;;;5015321;28;20589;-76
2023/04/01 02:58:45;;;;;;;8.80;4.10;;;;;;;;;;5026684;28;20659;-74
2023/04/01 03:01:10;;;;;;;8.30;4.20;;;;;;;;;;5001849;28;20044;-74
2023/04/01 03:03:36;;;;;;;9.23;4.30;;;;;;;;;;5012583;28;20063;-75
2023/04/01 03:06:08;;;;;;;9.57;5.32;;;;;;;;;;5021232;28;20052;-74
2023/04/01 03:08:34;;;;;;;10.27;4.93;;;;;;;;;;5013152;28;20524;-74
2023/04/01 03:10:59;;;;;;;10.50;5.00;;;;;;;;;;5013067;28;20097;-76
2023/04/01 03:13:25;;;;;;;9.40;5.15;;;;;;;;;;5013765;28;20369;-75
2023/04/01 03:15:50;;;;;;;12.10;5.93;;;;;;;;;;5007216;28;20033;-75
2023/04/01 03:18:16;;;;;;;12.10;6.15;;;;;;;;;;5011010;28;20026;-75
2023/04/01 03:20:41;;;;;;;13.05;6.43;;;;;;;;;;5011440;28;20116;-74
2023/04/01 03:23:07;;;;;;;8.70;5.07;;;;;;;;;;5015022;28;20753;-75
2023/04/01 03:25:33;;;;;;;9.57;4.13;;;;;;;;;;5015610;28;20038;-76
2023/04/01 03:27:59;;;;;;;10.35;4.55;;;;;;;;;;5012064;28;20430;-75
2023/04/01 03:30:24;;;;;;;11.38;4.57;;;;;;;;;;5013355;28;20025;-76
2023/04/01 03:32:50;;;;;;;10.32;4.88;;;;;;;;;;5011801;28;20044;-75
2023/04/01 03:35:15;;;;;;;8.15;4.53;;;;;;;;;;5015163;28;20033;-77
2023/04/01 03:37:41;;;;;;;17.38;5.88;;;;;;;;;;5003650;28;20349;-76
2023/04/01 03:40:06;;;;;;;9.90;5.53;;;;;;;;;;5007605;28;20034;-75
2023/04/01 03:42:32;;;;;;;8.27;4.93;;;;;;;;;;5016741;28;20344;-75
2023/04/01 03:44:57;;;;;;;11.80;6.75;;;;;;;;;;5023011;28;20076;-74
2023/04/01 03:47:22;;;;;;;15.25;9.43;;;;;;;;;;5012947;28;20053;-75
2023/04/01 03:49:48;;;;;;;15.38;9.07;;;;;;;;;;5010486;28;20037;-75
2023/04/01 03:52:13;;;;;;;17.95;10.90;;;;;;;;;;5011629;28;20493;-74
2023/04/01 03:54:38;;;;;;;11.57;6.95;;;;;;;;;;4999218;28;20044;-78
2023/04/01 03:57:04;;;;;;;11.70;5.93;;;;;;;;;;5016857;28;20032;-74
2023/04/01 03:59:30;;;;;;;15.48;5.53;;;;;;;;;;5013202;28;20033;-76
2023/04/01 04:01:55;;;;;;;15.57;5.13;;;;;;;;;;5012195;28;20454;-74
2023/04/01 04:04:20;;;;;;;12.68;4.32;;;;;;;;;;5005115;28;20289;-74
2023/04/01 04:06:45;;;;;;;9.45;4.32;;;;;;;;;;5009116;28;20349;-74
2023/04/01 04:09:11;;;;;;;9.10;3.60;;;;;;;;;;5013724;28;20022;-74
2023/04/01 04:11:36;;;;;;;8.80;3.88;;;;;;;;;;5016964;28;20120;-76
2023/04/01 04:14:02;;;;;;;10.43;4.00;;;;;;;;;;5012332;28;20333;-75
2023/04/01 04:16:27;;;;;;;9.18;3.95;;;;;;;;;;5016964;28;20030;-76
2023/04/01 04:18:52;;;;;;;9.80;3.70;;;;;;;;;;5015391;28;20124;-76
2023/04/01 04:21:18;;;;;;;9.73;3.00;;;;;;;;;;5017202;28;20053;-75
2023/04/01 04:23:43;;;;;;;9.23;3.67;;;;;;;;;;5013571;28;20509;-76
2023/04/01 04:26:13;;;;;;;7.38;3.63;;;;;;;;;;5010829;28;20037;-76
2023/04/01 04:28:38;;;;;;;;;;;;;;;;;;5014215;28;20028;-77
2023/04/01 04:31:07;;;;;;;11.07;4.20;;;;;;;;;;5007213;28;19914;-76
2023/04/01 04:33:33;;;;;;;8.63;4.68;;;;;;;;;;5014629;28;20014;-76
2023/04/01 04:35:59;;;;;;;12.85;6.18;;;;;;;;;;5010967;28;20026;-76
2023/04/01 04:38:24;;;;;;;11.63;4.97;;;;;;;;;;5011852;28;20059;-75
2023/04/01 04:40:50;;;;;;;11.85;4.80;;;;;;;;;;5017194;28;20033;-75
2023/04/01 04:43:15;;;;;;;13.80;7.90;;;;;;;;;;5013436;28;20070;-76
2023/04/01 04:45:41;;;;;;;19.35;11.30;;;;;;;;;;5018134;28;20032;-77
2023/04/01 04:48:10;;;;;;;12.25;4.70;;;;;;;;;;5015226;28;20053;-75
2023/04/01 04:50:36;;;;;;;10.10;3.83;;;;;;;;;;5014298;28;20033;-75
2023/04/01 04:53:02;;;;;;;61.15;49.22;;;;;;;;;;5012041;28;22296;-75
2023/04/01 04:55:27;;;;;;;34.92;17.83;;;;;;;;;;5011390;28;20029;-75
2023/04/01 04:57:52;;;;;;;27.45;14.88;;;;;;;;;;5005915;28;20712;-75
2023/04/01 05:00:18;;;;;;;44.60;37.67;;;;;;;;;;5012276;28;20425;-77
2023/04/01 05:02:43;;;;;;;54.53;38.90;;;;;;;;;;5016695;28;20064;-76
2023/04/01 05:05:08;;;;;;;27.20;18.33;;;;;;;;;;5015184;28;20060;-75
2023/04/01 05:07:34;;;;;;;26.38;15.30;;;;;;;;;;5013752;28;20044;-75
2023/04/01 05:09:59;;;;;;;21.35;14.07;;;;;;;;;;5011150;28;20136;-74
2023/04/01 05:12:25;;;;;;;16.77;7.97;;;;;;;;;;5016411;28;20112;-75
2023/04/01 05:14:50;;;;;;;14.20;7.07;;;;;;;;;;5013261;28;20409;-74
2023/04/01 05:17:15;;;;;;;19.38;8.77;;;;;;;;;;5015145;28;20045;-77
2023/04/01 05:19:41;;;;;;;16.45;5.90;;;;;;;;;;5015054;28;20107;-75
2023/04/01 05:22:06;;;;;;;17.17;8.55;;;;;;;;;;5015537;28;20367;-75
2023/04/01 05:24:32;;;;;;;11.23;5.70;;;;;;;;;;5012952;28;20036;-76
2023/04/01 05:26:57;;;;;;;19.38;9.05;;;;;;;;;;5014131;28;20041;-76
2023/04/01 05:29:23;;;;;;;19.92;10.77;;;;;;;;;;5013671;28;20041;-77
2023/04/01 05:31:48;;;;;;;16.75;6.30;;;;;;;;;;4999740;28;20088;-78
2023/04/01 05:34:14;;;;;;;17.48;7.53;;;;;;;;;;4994675;28;20096;-77
2023/04/01 05:36:41;;;;;;;20.88;11.23;;;;;;;;;;4999604;28;20107;-76
2023/04/01 05:39:06;;;;;;;54.72;32.28;;;;;;;;;;4992847;28;20475;-76
2023/04/01 05:41:34;;;;;;;303.52;136.43;;;;;;;;;;4995735;28;20037;-77
2023/04/01 05:43:59;;;;;;;223.82;112.60;;;;;;;;;;4990331;28;20026;-77
2023/04/01 05:46:25;;;;;;;499.52;322.48;;;;;;;;;;4994263;28;20044;-77
2023/04/01 05:48:50;;;;;;;161.10;101.72;;;;;;;;;;4988618;28;20029;-76
2023/04/01 05:51:15;;;;;;;60.20;38.58;;;;;;;;;;4988990;28;20034;-76
2023/04/01 05:53:41;;;;;;;54.15;36.83;;;;;;;;;;4990006;28;20099;-77
2023/04/01 05:56:09;;;;;;;47.45;30.23;;;;;;;;;;5005326;28;20444;-77
2023/04/01 05:58:34;;;;;;;84.78;72.07;;;;;;;;;;5018749;28;20025;-75
2023/04/01 06:01:04;;;;;;;37.55;26.27;;;;;;;;;;5018955;28;23235;-77
2023/04/01 06:03:29;;;;;;;37.15;22.38;;;;;;;;;;4999947;28;20040;-75
2023/04/01 06:05:54;;;;;;;22.42;12.32;;;;;;;;;;5001646;28;20341;-76
2023/04/01 06:08:20;;;;;;;19.00;11.50;;;;;;;;;;5016528;28;20468;-77
2023/04/01 06:10:48;;;;;;;28.48;16.27;;;;;;;;;;4999986;28;20428;-77
2023/04/01 06:13:32;;;;;;;29.83;20.33;;;;;;;;;;5010773;28;20441;-77
2023/04/01 06:16:06;;;;;;;37.30;24.23;;;;;;;;;;5004147;28;20022;-77
2023/04/01 06:18:31;;;;;;;81.38;52.60;;;;;;;;;;5010924;28;20132;-77
2023/04/01 06:21:00;;;;;;;113.45;76.45;;;;;;;;;;5016494;28;20128;-76
2023/04/01 06:23:31;;;;;;;104.97;75.75;;;;;;;;;;4993652;28;20117;-78
2023/04/01 06:26:19;;;;;;;386.60;223.65;;;;;;;;;;5000700;28;20025;-77
2023/04/01 06:28:44;;;;;;;166.10;101.35;;;;;;;;;;5003258;28;20018;-77
2023/04/01 06:31:12;;;;;;;234.05;120.50;;;;;;;;;;5002233;28;20108;-76
2023/04/01 06:33:48;;;;;;;140.82;78.25;;;;;;;;;;4999287;28;20025;-77
2023/04/01 06:36:13;;;;;;;117.00;65.25;;;;;;;;;;4999997;28;20026;-78
2023/04/01 06:38:57;;;;;;;135.98;87.43;;;;;;;;;;5003841;28;20021;-77
2023/04/01 06:41:29;;;;;;;162.90;113.68;;;;;;;;;;5009778;28;20330;-78
2023/04/01 06:44:13;;;;;;;149.38;98.90;;;;;;;;;;5012143;28;20503;-80
2023/04/01 06:46:38;;;;;;;201.98;156.27;;;;;;;;;;5012353;28;20449;-78
2023/04/01 06:49:17;;;;;;;196.77;140.10;;;;;;;;;;5001594;28;20477;-75
2023/04/01 06:51:46;;;;;;;107.28;85.53;;;;;;;;;;5014713;28;20030;-75
2023/04/01 06:54:17;;;;;;;188.55;133.48;;;;;;;;;;5015635;28;20037;-75
2023/04/01 06:56:46;;;;;;;175.02;122.82;;;;;;;;;;5014691;28;20033;-78
2023/04/01 06:59:11;;;;;;;221.90;175.07;;;;;;;;;;4980439;28;20034;-75
2023/04/01 07:01:46;;;;;;;177.25;120.70;;;;;;;;;;4992739;28;20057;-75
2023/04/01 07:04:14;;;;;;;172.45;117.90;;;;;;;;;;4992341;28;20346;-77
2023/04/01 07:06:53;;;;;;;166.30;106.40;;;;;;;;;;4998137;28;20033;-75
2023/04/01 07:09:21;;;;;;;56.15;38.55;;;;;;;;;;5011552;28;20600;-75
2023/04/01 07:11:47;;;;;;;44.75;32.67;;;;;;;;;;4992571;28;20034;-76
2023/04/01 07:14:27;;;;;;;65.32;48.05;;;;;;;;;;4993483;28;20036;-77
2023/04/01 07:17:11;;;;;;;80.82;51.00;;;;;;;;;;5002471;28;20033;-78
2023/04/01 07:19:43;;;;;;;89.65;50.15;;;;;;;;;;5000179;28;20091;-75
2023/04/01 07:22:31;;;;;;;117.15;56.05;;;;;;;;;;5007517;28;20029;-74
2023/04/01 07:25:01;;;;;;;42.28;27.45;;;;;;;;;;5013128;28;20056;-75
2023/04/01 07:27:26;;;;;;;25.98;17.98;;;;;;;;;;5008656;28;20030;-75
2023/04/01 07:29:52;;;;;;;36.58;25.52;;;;;;;;;;4993978;28;20088;-75
2023/04/01 07:32:30;;;;;;;38.35;28.48;;;;;;;;;;4993084;28;20208;-74
2023/04/01 07:35:15;;;;;;;48.38;37.47;;;;;;;;;;4994012;28;20026;-76
2023/04/01 07:37:55;;;;;;;79.10;66.30;;;;;;;;;;4996694;28;20163;-76
2023/04/01 07:40:23;;;;;;;53.45;47.08;;;;;;;;;;4995574;28;20034;-76
2023/04/01 07:43:11;;;;;;;42.03;31.27;;;;;;;;;;5002698;28;20041;-76
2023/04/01 07:45:36;;;;;;;70.82;50.67;;;;;;;;;;5008069;28;20037;-74
2023/04/01 07:48:04;;;;;;;66.95;50.83;;;;;;;;;;5014038;28;20115;-74
2023/04/01 07:50:32;;;;;;;51.03;43.10;;;;;;;;;;5013634;28;20040;-74
2023/04/01 07:53:00;;;;;;;36.03;27.13;;;;;;;;;;5011072;28;20047;-73
2023/04/01 07:55:29;;;;;;;60.67;42.67;;;;;;;;;;5014945;28;20030;-75
2023/04/01 07:58:14;;;;;;;81.70;57.67;;;;;;;;;;4999906;28;20035;-74
2023/04/01 08:00:46;;;;;;;102.28;65.93;;;;;;;;;;5002169;28;20471;-74
2023/04/01 08:03:17;;;;;;;95.38;63.65;;;;;;;;;;4999923;28;20406;-74
2023/04/01 08:05:51;;;;;;;101.68;67.47;;;;;;;;;;5014839;28;20108;-73
2023/04/01 08:08:20;;;;;;;82.80;58.15;;;;;;;;;;4995799;28;20017;-74
2023/04/01 08:11:02;;;;;;;56.95;42.65;;;;;;;;;;4992224;28;20129;-76
2023/04/01 08:13:42;;;;;;;78.63;56.72;;;;;;;;;;4990704;28;20061;-74
2023/04/01 08:16:26;;;;;;;68.78;49.38;;;;;;;;;;5001195;28;20028;-78
2023/04/01 08:18:56;;;;;;;58.25;43.65;;;;;;;;;;5003480;28;20135;-80
2023/04/01 08:21:24;;;;;;;71.82;52.95;;;;;;;;;;4998121;28;20033;-82
2023/04/01 08:23:52;;;;;;;61.38;47.90;;;;;;;;;;4991250;28;20127;-78
2023/04/01 08:26:40;;;;;;;65.90;48.13;;;;;;;;;;4991391;28;20021;-78
2023/04/01 08:29:23;;;;;;;81.50;59.15;;;;;;;;;;4991457;28;20052;-79
2023/04/01 08:32:10;;;;;;;85.15;63.30;;;;;;;;;;4992326;28;20053;-77
2023/04/01 08:34:40;;;;;;;87.82;54.22;;;;;;;;;;4991933;28;20017;-77
2023/04/01 08:37:10;;;;;;;109.78;71.70;;;;;;;;;;5008034;28;20029;-77
2023/04/01 08:39:44;;;;;;;198.35;126.95;;;;;;;;;;4991636;28;20028;-76
2023/04/01 08:42:16;;;;;;;57.70;39.88;;;;;;;;;;5019276;28;20921;-78
2023/04/01 08:45:07;;;;;;;66.57;46.25;;;;;;;;;;5001398;28;20029;-78
2023/04/01 08:47:41;;;;;;;62.75;44.33;;;;;;;;;;5004377;28;20381;-77
2023/04/01 08:50:12;;;;;;;82.35;62.45;;;;;;;;;;4998980;28;20025;-73
2023/04/01 08:52:56;;;;;;;81.25;64.88;;;;;;;;;;4981969;28;20029;-80
2023/04/01 08:55:27;;;;;;;70.78;61.60;;;;;;;;;;5001862;28;20057;-79
2023/04/01 08:57:55;;;;;;;95.35;74.70;;;;;;;;;;4996148;28;20050;-79
2023/04/01 09:00:31;;;;;;;107.47;74.85;;;;;;;;;;4997139;28;20040;-76
2023/04/01 09:03:10;;;;;;;76.13;58.45;;;;;;;;;;4998103;28;20033;-76
2023/04/01 09:05:36;;;;;;;126.47;78.82;;;;;;;;;;4994502;28;20402;-77
2023/04/01 09:08:05;;;;;;;67.22;43.72;;;;;;;;;;4992805;28;20037;-77
2023/04/01 09:10:42;;;;;;;65.85;45.88;;;;;;;;;;5009883;28;20033;-77
2023/04/01 09:13:07;;;;;;;90.25;56.67;;;;;;;;;;4995799;28;20028;-76
2023/04/01 09:15:52;;;;;;;54.15;37.30;;;;;;;;;;5031239;28;20030;-75
2023/04/01 09:18:40;;;;;;;74.68;51.28;;;;;;;;;;5017554;28;20057;-75
2023/04/01 09:21:23;;;;;;;107.28;74.28;;;;;;;;;;5017443;28;20527;-77
2023/04/01 09:24:07;;;;;;;101.07;72.10;;;;;;;;;;5011258;28;20037;-74
2023/04/01 09:26:32;;;;;;;76.95;53.03;;;;;;;;;;5001646;28;20132;-73
2023/04/01 09:29:13;;;;;;;63.15;43.05;;;;;;;;;;5000962;28;20156;-74
2023/04/01 09:31:41;;;;;;;67.82;51.40;;;;;;;;;;4999398;28;20034;-73
2023/04/01 09:34:19;;;;;;;57.88;41.30;;;;;;;;;;5002250;28;20029;-77
2023/04/01 09:37:03;;;;;;;62.90;42.13;;;;;;;;;;5000025;28;20025;-74
2023/04/01 09:39:35;;;;;;;55.83;39.70;;;;;;;;;;5001562;28;20440;-72
2023/04/01 09:42:00;;;;;;;61.08;42.72;;;;;;;;;;5005476;28;20495;-74
2023/04/01 09:44:28;;;;;;;45.33;33.60;;;;;;;;;;5008979;28;20033;-73
2023/04/01 09:46:54;;;;;;;39.45;29.75;;;;;;;;;;5011602;28;20060;-73
2023/04/01 09:49:22;;;;;;;53.67;35.40;;;;;;;;;;5013223;28;20038;-76
2023/04/01 09:52:06;;;;;;;97.20;54.75;;;;;;;;;;5004103;28;20120;-75
2023/04/01 09:54:50;;;;;;;56.85;36.92;;;;;;;;;;5000668;28;20053;-76
2023/04/01 09:57:34;;;;;;;42.03;34.50;;;;;;;;;;5003082;28;20033;-76
2023/04/01 10:00:17;;;;;;;24.10;13.95;;;;;;;;;;5007905;28;20142;-76
2023/04/01 10:02:58;;;;;;;23.67;9.50;;;;;;;;;;5000447;28;20061;-76
2023/04/01 10:05:39;;;;;;;25.27;17.95;;;;;;;;;;5001582;28;20333;-74
2023/04/01 10:08:10;;;;;;;21.38;10.75;;;;;;;;;;5013623;28;20045;-75
2023/04/01 10:10:41;;;;;;;69.57;42.17;;;;;;;;;;5014162;28;20045;-72
2023/04/01 10:13:25;;;;;;;23.35;14.70;;;;;;;;;;5010378;28;20022;-72
2023/04/01 10:15:50;;;;;;;24.80;16.88;;;;;;;;;;5016431;28;20030;-74
2023/04/01 10:18:24;;;;;;;19.42;13.43;;;;;;;;;;5010995;28;20436;-71
2023/04/01 10:21:06;;;;;;;23.75;16.73;;;;;;;;;;5029571;28;20116;-73
2023/04/01 10:23:35;;;;;;;19.95;16.02;;;;;;;;;;5012536;28;20029;-73
2023/04/01 10:26:19;;;;;;;25.70;18.90;;;;;;;;;;5011021;28;20059;-73
2023/04/01 10:28:48;;;;;;;17.55;11.05;;;;;;;;;;5013485;28;20471;-73
2023/04/01 10:31:28;;;;;;;26.13;18.25;;;;;;;;;;5011742;28;20041;-76
2023/04/01 10:33:56;;;;;;;18.67;9.85;;;;;;;;;;5013194;28;20452;-73
2023/04/01 10:36:40;;;;;;;23.48;18.70;;;;;;;;;;5008335;28;20040;-72
2023/04/01 10:39:39;;;;;;;14.57;10.23;;;;;;;;;;5009256;28;20348;-74
2023/04/01 10:42:13;;;;;;;22.05;12.88;;;;;;;;;;4989619;28;20065;-73
2023/04/01 10:44:57;;;;;;;17.98;11.95;;;;;;;;;;4992564;28;20042;-71
2023/04/01 10:47:41;;;;;;;13.63;7.43;;;;;;;;;;4985107;28;20374;-74
2023/04/01 10:50:24;;;;;;;18.90;10.40;;;;;;;;;;4987396;28;20817;-73
2023/04/01 10:53:07;;;;;;;21.70;12.68;;;;;;;;;;4979191;28;20377;-72
2023/04/01 10:55:32;;;;;;;12.40;8.40;;;;;;;;;;4991297;28;20037;-70
2023/04/01 10:58:21;;;;;;;36.10;22.25;;;;;;;;;;4986742;28;20056;-74
2023/04/01 11:00:55;;;;;;;48.58;37.13;;;;;;;;;;4992735;28;20102;-72
2023/04/01 11:03:39;;;;;;;45.63;34.22;;;;;;;;;;4934123;28;20097;-70
2023/04/01 11:06:07;;;;;;;115.47;86.75;;;;;;;;;;4979411;28;20034;-70
2023/04/01 11:08:32;;;;;;;84.38;71.72;;;;;;;;;;4986917;28;20124;-71
2023/04/01 11:11:17;;;;;;;78.10;68.10;;;;;;;;;;4959799;28;20121;-75
2023/04/01 11:14:01;;;;;;;35.92;27.80;;;;;;;;;;4970987;28;20038;-71
2023/04/01 11:16:26;;;;;;;29.15;23.38;;;;;;;;;;4970235;28;20046;-72
2023/04/01 11:19:06;;;;;;;26.48;18.77;;;;;;;;;;4994037;28;20046;-78
2023/04/01 11:21:53;;;;;;;53.85;34.40;;;;;;;;;;4990369;28;20107;-75
2023/04/01 11:24:28;;;;;;;47.42;36.45;;;;;;;;;;4997045;28;20080;-75
2023/04/01 11:26:56;;;;;;;148.15;124.53;;;;;;;;;;4990536;28;20452;-78
2023/04/01 11:29:43;;;;;;;103.05;82.40;;;;;;;;;;4954700;28;20046;-75
2023/04/01 11:32:24;;;;;;;167.18;122.78;;;;;;;;;;4992495;28;20045;-75
2023/04/01 11:35:01;;;;;;;344.02;212.40;;;;;;;;;;4993102;28;20480;-76
2023/04/01 11:37:32;;;;;;;378.20;238.93;;;;;;;;;;4991966;28;20033;-77
2023/04/01 11:40:10;;;;;;;144.98;110.97;;;;;;;;;;4993148;28;20034;-76
2023/04/01 11:42:51;;;;;;;56.78;44.95;;;;;;;;;;4992852;28;20030;-77
2023/04/01 11:45:27;;;;;;;47.25;33.40;;;;;;;;;;4998685;28;20036;-74
2023/04/01 11:48:11;;;;;;;52.50;37.42;;;;;;;;;;4993208;28;20062;-74
2023/04/01 11:50:40;;;;;;;50.22;29.88;;;;;;;;;;5001847;28;20113;-76
2023/04/01 11:53:05;;;;;;;35.83;23.07;;;;;;;;;;5007913;28;20310;-75
2023/04/01 11:55:40;;;;;;;36.78;23.25;;;;;;;;;;5012365;28;20079;-73
2023/04/01 11:58:11;;;;;;;18.77;14.05;;;;;;;;;;5015072;28;20316;-74
2023/04/01 12:00:54;;;;;;;18.38;15.10;;;;;;;;;;4990888;28;20038;-74
2023/04/01 12:03:38;;;;;;;26.15;16.23;;;;;;;;;;4993024;28;20045;-74
2023/04/01 12:06:11;;;;;;;17.15;11.85;;;;;;;;;;5001377;28;20029;-76
2023/04/01 12:08:56;;;;;;;53.90;32.97;;;;;;;;;;5002016;28;20172;-75
2023/04/01 12:11:22;;;;;;;77.28;40.30;;;;;;;;;;5003828;28;20109;-75
2023/04/01 12:13:50;;;;;;;35.85;22.05;;;;;;;;;;5009025;28;20393;-75
2023/04/01 12:16:15;;;;;;;19.27;12.75;;;;;;;;;;5000227;28;20112;-73
2023/04/01 12:18:53;;;;;;;13.95;9.10;;;;;;;;;;5012889;28;20129;-71
2023/04/01 12:21:18;;;;;;;35.33;22.00;;;;;;;;;;5009178;28;20032;-73
2023/04/01 12:24:02;;;;;;;38.53;23.10;;;;;;;;;;5013826;28;20030;-78
2023/04/01 12:26:27;;;;;;;15.43;11.52;;;;;;;;;;5016541;28;20436;-76
2023/04/01 12:29:06;;;;;;;23.60;17.75;;;;;;;;;;5016121;28;20032;-74
2023/04/01 12:31:37;;;;;;;18.98;13.60;;;;;;;;;;5020545;28;20029;-77
2023/04/01 12:34:11;;;;;;;12.60;9.20;;;;;;;;;;5012548;28;20446;-77
2023/04/01 12:36:49;;;;;;;20.23;14.40;;;;;;;;;;5016664;28;20402;-77
2023/04/01 12:39:18;;;;;;;13.35;10.15;;;;;;;;;;5015218;28;20170;-75
2023/04/01 12:41:44;;;;;;;;;;;;;;;;;;4998080;28;20041;-75
2023/04/01 12:44:09;;;;;;;74.22;46.25;;;;;;;;;;5000881;28;19922;-74
2023/04/01 12:46:54;;;;;;;48.55;36.78;;;;;;;;;;5000552;28;20050;-75
2023/04/01 12:49:26;;;;;;;21.45;18.02;;;;;;;;;;5008330;28;20063;-72
2023/04/01 12:52:00;;;;;;;16.95;15.15;;;;;;;;;;5007775;28;20098;-74
2023/04/01 12:54:40;;;;;;;36.10;30.65;;;;;;;;;;5007312;28;20500;-73
2023/04/01 12:57:14;;;;;;;30.63;19.08;;;;;;;;;;5002546;28;20037;-74
2023/04/01 12:59:42;;;;;;;18.60;14.48;;;;;;;;;;5015358;28;20052;-72
2023/04/01 13:02:27;;;;;;;29.80;22.50;;;;;;;;;;5013505;28;20425;-72
2023/04/01 13:05:01;;;;;;;39.38;27.83;;;;;;;;;;5003403;28;20029;-74
2023/04/01 13:07:59;;;;;;;34.08;24.08;;;;;;;;;;5007724;28;20033;-74
2023/04/01 13:10:43;;;;;;;33.58;22.95;;;;;;;;;;5006313;28;20480;-73
2023/04/01 13:13:08;;;;;;;30.88;21.20;;;;;;;;;;5014886;28;20112;-74
2023/04/01 13:15:42;;;;;;;52.95;33.92;;;;;;;;;;5020981;28;20160;-73
2023/04/01 13:18:08;;;;;;;29.60;19.73;;;;;;;;;;5012973;28;20083;-72
2023/04/01 13:20:41;;;;;;;10.05;8.60;;;;;;;;;;5007955;28;20413;-73
2023/04/01 13:23:09;;;;;;;18.00;13.25;;;;;;;;;;5005207;28;20037;-73
2023/04/01 13:25:44;;;;;;;15.35;12.60;;;;;;;;;;5009790;28;20022;-73
2023/04/01 13:28:09;;;;;;;15.23;9.35;;;;;;;;;;5004623;28;20025;-73
2023/04/01 13:30:58;;;;;;;20.70;15.63;;;;;;;;;;5012676;28;20025;-74
2023/04/01 13:33:29;;;;;;;23.90;14.68;;;;;;;;;;5008992;28;20042;-75
2023/04/01 13:36:04;;;;;;;8.30;6.30;;;;;;;;;;5006486;28;20036;-77
2023/04/01 13:38:42;;;;;;;6.60;4.15;;;;;;;;;;5000359;28;20448;-77
2023/04/01 13:41:07;;;;;;;7.47;6.47;;;;;;;;;;5006047;28;20032;-75
2023/04/01 13:43:52;;;;;;;7.13;5.63;;;;;;;;;;4964719;28;20077;-76
2023/04/01 13:46:37;;;;;;;9.27;6.00;;;;;;;;;;4985292;28;20147;-77
2023/04/01 13:49:05;;;;;;;18.10;14.23;;;;;;;;;;4989607;28;20029;-74
2023/04/01 13:51:30;;;;;;;15.38;11.55;;;;;;;;;;4986167;28;20060;-77
2023/04/01 13:54:14;;;;;;;10.50;8.48;;;;;;;;;;4993743;28;20057;-75
2023/04/01 13:56:59;;;;;;;14.30;9.77;;;;;;;;;;4991954;28;20463;-76
2023/04/01 13:59:24;;;;;;;11.02;8.50;;;;;;;;;;4990298;28;20022;-77
2023/04/01 14:02:02;;;;;;;25.05;18.63;;;;;;;;;;4985172;28;20056;-78
2023/04/01 14:04:43;;;;;;;25.25;18.85;;;;;;;;;;4990525;28;20036;-76
2023/04/01 14:07:08;;;;;;;49.33;31.88;;;;;;;;;;4998214;28;20029;-77
2023/04/01 14:09:44;;;;;;;54.83;35.90;;;;;;;;;;5007875;28;20030;-77
2023/04/01 14:12:12;;;;;;;58.15;34.75;;;;;;;;;;4991997;28;20021;-74
2023/04/01 14:14:53;;;;;;;31.73;21.98;;;;;;;;;;4995807;28;20030;-77
2023/04/01 14:17:35;;;;;;;46.78;37.10;;;;;;;;;;5002184;28;20033;-76
2023/04/01 14:20:15;;;;;;;48.40;39.10;;;;;;;;;;4997811;28;20025;-76
2023/04/01 14:22:59;;;;;;;41.25;32.03;;;;;;;;;;4992562;28;20052;-76
2023/04/01 14:25:35;;;;;;;53.30;46.85;;;;;;;;;;4990368;28;20025;-75
2023/04/01 14:28:06;;;;;;;44.65;36.47;;;;;;;;;;4988111;28;20097;-75
2023/04/01 14:30:51;;;;;;;104.38;66.10;;;;;;;;;;5015295;28;20057;-77
2023/04/01 14:33:32;;;;;;;10.60;7.28;;;;;;;;;;5029835;28;20033;-80
2023/04/01 14:36:01;;;;;;;5.63;5.05;;;;;;;;;;5024992;28;20064;-78
2023/04/01 14:38:45;;;;;;;8.27;4.50;;;;;;;;;;5004867;28;20041;-76
2023/04/01 14:41:17;;;;;;;4.75;3.70;;;;;;;;;;5008521;28;20104;-78
2023/04/01 14:43:42;;;;;;;3.58;3.00;;;;;;;;;;4988542;28;20049;-78
2023/04/01 14:46:23;;;;;;;3.10;2.70;;;;;;;;;;5019980;28;20105;-76
2023/04/01 14:49:01;;;;;;;6.30;5.35;;;;;;;;;;5010118;28;20033;-76